Time;durP1;ratioP1;P1;durP2;ratioP2;P2;SDS_P1;SDS_P2;PMS_P1;PMS_P2;Temp;Humidity;BMP_temperature;BMP_pressure;BME280_temperature;BME280_humidity;BME280_pressure;Samples;Min_cycle;Max_cycle;Signal;HPM_P1;HPM_P2
2022/06/18 00:00:51;;;;;;;6.57;6.07;;;19.20;99.90;;;;;;5051229;28;20458;-72
2022/06/18 00:03:57;;;;;;;7.53;6.93;;;19.20;99.90;;;;;;5047233;28;20489;-72
2022/06/18 00:07:09;;;;;;;5.87;5.37;;;19.20;99.90;;;;;;4974277;28;20467;-72
2022/06/18 00:10:01;;;;;;;6.67;6.10;;;19.10;99.90;;;;;;5052107;28;20457;-72
2022/06/18 00:16:11;;;;;;;6.30;5.70;;;19.00;99.90;;;;;;5047980;28;20485;-72
2022/06/18 00:19:18;;;;;;;6.23;5.73;;;19.00;99.90;;;;;;5052984;28;20463;-72
2022/06/18 00:22:22;;;;;;;6.33;5.80;;;19.00;99.90;;;;;;5051149;28;20938;-72
2022/06/18 00:25:18;;;;;;;6.13;5.63;;;19.00;99.90;;;;;;5048639;28;20472;-72
2022/06/18 00:28:19;;;;;;;5.87;5.20;;;18.90;99.90;;;;;;5052969;28;21936;-72
2022/06/18 00:31:07;;;;;;;6.00;5.50;;;18.90;99.90;;;;;;5051726;28;21062;-72
2022/06/18 00:33:57;;;;;;;5.93;5.43;;;18.90;99.90;;;;;;5050809;28;20481;-72
2022/06/18 00:36:50;;;;;;;5.90;5.37;;;18.90;99.90;;;;;;5051696;28;20586;-74
2022/06/18 00:39:39;;;;;;;6.53;5.90;;;18.90;99.90;;;;;;5051326;28;20549;-72
2022/06/18 00:42:59;;;;;;;;;;;;;;;;;;;;;
2022/06/18 00:45:51;;;;;;;5.63;5.23;;;18.90;99.90;;;;;;5049073;28;20483;-72
2022/06/18 00:49:12;;;;;;;6.23;5.70;;;18.90;99.90;;;;;;5052494;28;20454;-72
2022/06/18 00:52:14;;;;;;;6.20;5.63;;;18.80;99.90;;;;;;5052242;28;20508;-72
2022/06/18 00:55:30;;;;;;;6.13;5.63;;;18.80;99.90;;;;;;5049131;28;20477;-72
2022/06/18 00:58:29;;;;;;;5.57;5.17;;;18.80;99.90;;;;;;5054106;28;20517;-72
2022/06/18 01:01:21;;;;;;;6.00;5.60;;;18.70;99.90;;;;;;5053722;28;20523;-72
2022/06/18 01:04:29;;;;;;;6.37;5.87;;;18.70;99.90;;;;;;5047405;28;20585;-72
2022/06/18 01:07:25;;;;;;;5.97;5.57;;;18.70;99.90;;;;;;5053192;28;20533;-72
2022/06/18 01:10:33;;;;;;;5.70;5.30;;;18.70;99.90;;;;;;5051615;28;20534;-72
2022/06/18 01:13:40;;;;;;;5.60;5.10;;;18.70;99.90;;;;;;5051868;28;20517;-72
2022/06/18 01:16:40;;;;;;;5.87;5.37;;;18.60;99.90;;;;;;5051502;28;20481;-72
2022/06/18 01:19:33;;;;;;;5.70;5.23;;;18.60;99.90;;;;;;5052599;28;20465;-72
2022/06/18 01:22:45;;;;;;;5.67;5.20;;;18.60;99.90;;;;;;5049178;28;20582;-72
2022/06/18 01:25:35;;;;;;;6.30;5.80;;;18.60;99.90;;;;;;5049955;28;20562;-72
2022/06/18 01:28:30;;;;;;;6.07;5.67;;;18.60;99.90;;;;;;5052993;28;20993;-72
2022/06/18 01:31:21;;;;;;;6.27;5.80;;;18.50;99.90;;;;;;5051126;28;20492;-72
2022/06/18 01:34:12;;;;;;;5.93;5.53;;;18.50;99.90;;;;;;5046430;28;20501;-72
2022/06/18 01:37:07;;;;;;;6.30;5.80;;;18.50;99.90;;;;;;5051348;28;21261;-72
2022/06/18 01:40:23;;;;;;;6.00;5.50;;;18.50;99.90;;;;;;5052659;28;20909;-72
2022/06/18 01:43:29;;;;;;;6.20;5.70;;;18.40;99.90;;;;;;5052942;28;20481;-72
2022/06/18 01:46:32;;;;;;;6.40;5.90;;;18.40;99.90;;;;;;5054069;28;20479;-72
2022/06/18 01:49:39;;;;;;;6.47;5.97;;;18.40;99.90;;;;;;5049739;28;20460;-72
2022/06/18 01:52:36;;;;;;;6.63;6.23;;;18.30;99.90;;;;;;5053481;28;20564;-72
2022/06/18 01:55:36;;;;;;;6.30;5.80;;;18.30;99.90;;;;;;5055553;28;20553;-72
2022/06/18 01:58:38;;;;;;;5.93;5.43;;;18.30;99.90;;;;;;5054835;28;20960;-72
2022/06/18 02:01:32;;;;;;;6.93;6.33;;;18.20;99.90;;;;;;5052286;28;20515;-72
2022/06/18 02:04:23;;;;;;;6.77;6.17;;;18.20;99.90;;;;;;5050177;28;20493;-71
2022/06/18 02:07:22;;;;;;;5.80;5.40;;;18.20;99.90;;;;;;5051900;28;21172;-72
2022/06/18 02:10:23;;;;;;;6.70;6.10;;;18.20;99.90;;;;;;5050785;28;20446;-72
2022/06/18 02:13:13;;;;;;;6.27;5.80;;;18.20;99.90;;;;;;5055160;28;20560;-72
2022/06/18 02:16:17;;;;;;;6.40;5.90;;;18.10;99.90;;;;;;5053277;28;21032;-72
2022/06/18 02:19:09;;;;;;;6.17;5.67;;;18.10;99.90;;;;;;5050477;28;20485;-72
2022/06/18 02:22:05;;;;;;;6.70;6.20;;;18.10;99.90;;;;;;5053300;28;20505;-72
2022/06/18 02:24:55;;;;;;;6.27;5.73;;;18.10;99.90;;;;;;5053344;28;20547;-72
2022/06/18 02:28:03;;;;;;;6.33;5.93;;;18.10;99.90;;;;;;5052541;28;21056;-72
2022/06/18 02:31:03;;;;;;;5.53;5.13;;;18.00;99.90;;;;;;5050330;28;20462;-72
2022/06/18 02:34:05;;;;;;;5.63;5.23;;;17.90;99.90;;;;;;5055511;28;20469;-72
2022/06/18 02:37:10;;;;;;;7.03;5.53;;;17.90;99.90;;;;;;5055138;28;20461;-72
2022/06/18 02:40:19;;;;;;;6.40;5.90;;;17.80;99.90;;;;;;5054389;28;21055;-72
2022/06/18 02:43:13;;;;;;;6.20;5.80;;;17.80;99.90;;;;;;5054246;28;20474;-72
2022/06/18 02:46:12;;;;;;;6.50;6.00;;;17.80;99.90;;;;;;5050574;28;20743;-72
2022/06/18 02:49:14;;;;;;;6.00;5.60;;;17.80;99.90;;;;;;5046514;28;20491;-72
2022/06/18 02:52:09;;;;;;;6.30;5.70;;;17.90;99.90;;;;;;5055400;28;20892;-72
2022/06/18 02:55:14;;;;;;;6.30;5.80;;;17.80;99.90;;;;;;5051802;28;20482;-72
2022/06/18 02:58:22;;;;;;;6.80;6.20;;;17.80;99.90;;;;;;5053713;28;20484;-72
2022/06/18 03:01:16;;;;;;;5.83;5.43;;;17.70;99.90;;;;;;5054417;28;20461;-72
2022/06/18 03:04:07;;;;;;;6.23;5.73;;;17.80;99.90;;;;;;5048238;28;20564;-72
2022/06/18 03:06:59;;;;;;;6.30;5.90;;;17.70;99.90;;;;;;5052084;28;20839;-72
2022/06/18 03:13:24;;;;;;;6.00;5.50;;;17.60;99.90;;;;;;5052385;28;20478;-72
2022/06/18 03:16:21;;;;;;;5.97;5.47;;;17.60;99.90;;;;;;5055777;28;20523;-72
2022/06/18 03:19:26;;;;;;;5.90;5.50;;;17.60;99.90;;;;;;5051579;28;20478;-72
2022/06/18 03:22:36;;;;;;;5.77;5.27;;;17.60;99.90;;;;;;5057082;28;20536;-72
2022/06/18 03:25:33;;;;;;;5.80;5.40;;;17.60;99.90;;;;;;5052934;28;20480;-72
2022/06/18 03:28:38;;;;;;;5.80;5.30;;;17.50;99.90;;;;;;5052261;28;20504;-72
2022/06/18 03:31:36;;;;;;;6.40;5.90;;;17.50;99.90;;;;;;5052958;28;20467;-72
2022/06/18 03:34:38;;;;;;;6.37;5.80;;;17.40;99.90;;;;;;5057476;28;20471;-72
2022/06/18 03:37:42;;;;;;;6.57;6.07;;;17.30;99.90;;;;;;5055698;28;20452;-72
2022/06/18 03:40:37;;;;;;;6.10;5.60;;;17.40;99.90;;;;;;5055909;28;20552;-72
2022/06/18 03:43:39;;;;;;;6.80;6.17;;;17.30;99.90;;;;;;5053804;28;20687;-72
2022/06/18 03:47:04;;;;;;;7.30;5.63;;;17.30;99.90;;;;;;5055307;28;20454;-72
2022/06/18 03:49:58;;;;;;;6.37;5.70;;;17.20;99.90;;;;;;5052374;28;20491;-72
2022/06/18 03:52:53;;;;;;;6.53;6.03;;;17.20;99.90;;;;;;5052752;28;20477;-72
2022/06/18 03:55:43;;;;;;;6.10;5.53;;;17.20;99.90;;;;;;5054955;28;20478;-72
2022/06/18 03:59:03;;;;;;;6.13;5.73;;;17.10;99.90;;;;;;5049275;28;20469;-72
2022/06/18 04:02:49;;;;;;;6.00;5.60;;;17.20;99.90;;;;;;5025502;28;21533;-72
2022/06/18 04:05:43;;;;;;;6.47;5.73;;;17.20;99.90;;;;;;5030976;28;20658;-72
2022/06/18 04:08:50;;;;;;;;;;;;;;;;;;;;;
2022/06/18 04:11:48;;;;;;;6.20;5.77;;;17.20;99.90;;;;;;5034553;28;20538;-72
2022/06/18 04:15:01;;;;;;;5.93;5.53;;;17.30;99.90;;;;;;5033267;28;20513;-72
2022/06/18 04:17:57;;;;;;;5.73;5.33;;;17.30;99.90;;;;;;5033109;28;20482;-72
2022/06/18 04:20:56;;;;;;;5.97;5.53;;;17.40;99.90;;;;;;5033857;28;20551;-72
2022/06/18 04:23:54;;;;;;;6.83;6.43;;;17.40;99.90;;;;;;5035127;28;20509;-72
2022/06/18 04:26:42;;;;;;;6.50;5.90;;;17.50;99.90;;;;;;5030492;28;20509;-72
2022/06/18 04:29:37;;;;;;;6.10;5.60;;;17.50;99.90;;;;;;5032622;28;20480;-72
2022/06/18 04:32:30;;;;;;;6.97;6.47;;;17.60;99.90;;;;;;5032960;28;20452;-72
2022/06/18 04:35:23;;;;;;;6.73;6.13;;;17.70;99.90;;;;;;5032116;28;20561;-72
2022/06/18 04:38:16;;;;;;;6.63;6.00;;;17.70;99.90;;;;;;5031278;28;20471;-73
2022/06/18 04:41:06;;;;;;;5.60;5.20;;;17.80;99.90;;;;;;5031406;28;20613;-72
2022/06/18 04:44:05;;;;;;;5.90;5.50;;;17.90;99.90;;;;;;5031903;28;20506;-72
2022/06/18 04:47:18;;;;;;;5.50;5.00;;;17.90;99.90;;;;;;5033189;28;20447;-72
2022/06/18 04:50:11;;;;;;;5.67;5.17;;;18.00;99.90;;;;;;5033118;28;20628;-72
2022/06/18 04:53:03;;;;;;;4.87;4.57;;;18.10;99.90;;;;;;5031690;28;20473;-72
2022/06/18 04:56:15;;;;;;;4.87;4.47;;;18.20;99.90;;;;;;5030385;28;20471;-72
2022/06/18 04:59:15;;;;;;;5.10;4.37;;;18.20;99.90;;;;;;5031789;28;20479;-72
2022/06/18 05:02:06;;;;;;;5.10;4.70;;;18.30;99.90;;;;;;5031655;28;20458;-72
2022/06/18 05:05:08;;;;;;;5.37;4.97;;;18.40;99.90;;;;;;5029488;28;20532;-72
2022/06/18 05:08:11;;;;;;;4.83;4.50;;;18.50;99.90;;;;;;5032697;28;20947;-72
2022/06/18 05:11:10;;;;;;;5.60;5.20;;;18.60;99.90;;;;;;5032954;28;20448;-72
2022/06/18 05:14:24;;;;;;;4.83;4.50;;;18.70;99.90;;;;;;5031666;28;20527;-72
2022/06/18 05:17:31;;;;;;;4.93;4.60;;;18.70;99.90;;;;;;5031735;28;20592;-72
2022/06/18 05:24:08;;;;;;;4.87;4.47;;;18.90;99.90;;;;;;5020240;28;20503;-72
2022/06/18 05:27:00;;;;;;;5.10;4.70;;;19.00;99.90;;;;;;5032670;28;20454;-73
2022/06/18 05:29:51;;;;;;;5.13;4.63;;;19.10;99.90;;;;;;5027722;28;20455;-72
2022/06/18 05:32:39;;;;;;;4.77;4.37;;;19.20;99.90;;;;;;5027360;28;21120;-72
2022/06/18 05:35:56;;;;;;;5.10;4.70;;;19.30;99.90;;;;;;5028830;28;20483;-72
2022/06/18 05:41:58;;;;;;;5.00;4.63;;;19.40;99.90;;;;;;5028231;28;21304;-72
2022/06/18 05:44:46;;;;;;;5.60;4.90;;;19.50;99.90;;;;;;5031842;28;20556;-72
2022/06/18 05:47:55;;;;;;;5.17;4.77;;;19.60;99.90;;;;;;5030180;28;20542;-72
2022/06/18 05:51:01;;;;;;;5.87;4.87;;;19.60;99.90;;;;;;5026525;28;20447;-73
2022/06/18 05:53:50;;;;;;;5.30;4.87;;;19.70;99.90;;;;;;5032393;28;20957;-73
2022/06/18 05:56:52;;;;;;;5.40;4.90;;;19.80;99.90;;;;;;5032395;28;20989;-73
2022/06/18 05:59:54;;;;;;;5.33;4.93;;;19.90;99.90;;;;;;5025450;28;20823;-73
2022/06/18 06:02:55;;;;;;;5.07;4.40;;;20.00;99.90;;;;;;5020339;28;20470;-74
2022/06/18 06:05:48;;;;;;;5.27;4.80;;;20.00;99.90;;;;;;5010037;28;20598;-73
2022/06/18 06:08:37;;;;;;;5.20;4.90;;;20.10;99.90;;;;;;5015890;28;21038;-73
2022/06/18 06:11:32;;;;;;;4.97;4.57;;;20.10;99.90;;;;;;5031029;28;20447;-73
2022/06/18 06:14:21;;;;;;;5.33;4.90;;;20.30;99.90;;;;;;5031588;28;20627;-73
2022/06/18 06:17:16;;;;;;;5.60;5.10;;;20.30;99.90;;;;;;5031871;28;20450;-73
2022/06/18 06:20:12;;;;;;;5.40;4.90;;;20.40;99.90;;;;;;5030764;28;20510;-73
2022/06/18 06:23:01;;;;;;;6.40;5.90;;;20.50;99.90;;;;;;5035629;28;20474;-73
2022/06/18 06:25:51;;;;;;;6.20;5.63;;;20.50;99.90;;;;;;5027603;28;20590;-73
2022/06/18 06:28:42;;;;;;;5.17;4.77;;;20.60;99.90;;;;;;5032419;28;20490;-74
2022/06/18 06:31:31;;;;;;;7.20;6.60;;;20.70;99.90;;;;;;5027290;28;20477;-73
2022/06/18 06:34:19;;;;;;;6.67;6.07;;;20.70;99.90;;;;;;5030820;28;20540;-73
2022/06/18 06:37:10;;;;;;;6.00;5.50;;;20.80;99.90;;;;;;5025180;28;20447;-73
2022/06/18 06:39:59;;;;;;;5.97;5.40;;;20.80;99.90;;;;;;5024869;28;20486;-73
2022/06/18 06:42:50;;;;;;;5.77;5.27;;;20.90;99.90;;;;;;5022484;28;20495;-73
2022/06/18 06:45:38;;;;;;;6.23;5.73;;;20.90;99.90;;;;;;5018520;28;21088;-72
2022/06/18 06:48:26;;;;;;;6.40;5.80;;;21.00;99.90;;;;;;5026341;28;20531;-72
2022/06/18 06:51:17;;;;;;;6.57;5.97;;;21.00;99.90;;;;;;5023106;28;20555;-73
2022/06/18 06:54:08;;;;;;;6.60;6.00;;;21.10;99.90;;;;;;5024149;28;20497;-73
2022/06/18 07:00:04;;;;;;;5.23;4.93;;;21.20;99.90;;;;;;5026471;28;20971;-72
2022/06/18 07:02:53;;;;;;;6.33;5.83;;;21.30;99.90;;;;;;5024640;28;20552;-72
2022/06/18 07:05:47;;;;;;;8.23;6.10;;;21.40;99.90;;;;;;5029812;28;21019;-73
2022/06/18 07:08:36;;;;;;;6.27;5.87;;;21.40;99.90;;;;;;5032236;28;20549;-73
2022/06/18 07:11:25;;;;;;;6.13;5.63;;;21.50;99.90;;;;;;5025706;28;20542;-73
2022/06/18 07:14:13;;;;;;;6.80;6.30;;;21.50;99.90;;;;;;5027378;28;20682;-73
2022/06/18 07:17:02;;;;;;;7.70;7.00;;;21.60;99.90;;;;;;5028745;28;20491;-74
2022/06/18 07:19:50;;;;;;;6.20;5.77;;;21.70;99.90;;;;;;5031728;28;20561;-72
2022/06/18 07:22:38;;;;;;;7.07;6.57;;;21.70;99.90;;;;;;5030467;28;20495;-72
2022/06/18 07:25:27;;;;;;;7.80;7.20;;;21.80;99.90;;;;;;5026190;28;20582;-72
2022/06/18 07:28:16;;;;;;;8.43;7.60;;;21.90;99.90;;;;;;5033861;28;20463;-72
2022/06/18 07:31:05;;;;;;;8.27;7.50;;;21.90;99.90;;;;;;5021958;28;20459;-73
2022/06/18 07:33:54;;;;;;;6.90;6.37;;;22.00;99.90;;;;;;5027278;28;20546;-73
2022/06/18 07:36:43;;;;;;;8.27;7.20;;;22.10;99.90;;;;;;5024580;28;20455;-73
2022/06/18 07:39:31;;;;;;;7.30;6.60;;;22.10;99.90;;;;;;5024337;28;20471;-73
2022/06/18 07:42:21;;;;;;;8.47;7.77;;;22.20;99.90;;;;;;5026917;28;20459;-72
2022/06/18 07:45:16;;;;;;;7.97;7.23;;;22.20;99.90;;;;;;5027292;28;20542;-74
2022/06/18 07:48:05;;;;;;;8.47;7.87;;;22.30;99.90;;;;;;5026173;28;20458;-73
2022/06/18 07:50:53;;;;;;;9.80;7.70;;;22.40;99.90;;;;;;5029315;28;20456;-76
2022/06/18 07:53:42;;;;;;;8.20;7.50;;;22.40;99.90;;;;;;5035419;28;20486;-77
2022/06/18 07:56:31;;;;;;;8.63;7.80;;;22.50;99.90;;;;;;5034511;28;20459;-77
2022/06/18 07:59:19;;;;;;;9.10;8.30;;;22.50;99.90;;;;;;5030935;28;20455;-75
2022/06/18 08:02:11;;;;;;;7.00;6.50;;;22.60;99.90;;;;;;5022412;28;20541;-74
2022/06/18 08:05:00;;;;;;;8.03;7.30;;;22.60;99.90;;;;;;5030594;28;20868;-74
2022/06/18 08:07:49;;;;;;;8.67;7.87;;;22.60;99.90;;;;;;5034828;28;20997;-75
2022/06/18 08:10:57;;;;;;;7.80;7.20;;;22.70;99.90;;;;;;5031818;28;20455;-77
2022/06/18 08:13:46;;;;;;;8.27;7.60;;;22.80;99.90;;;;;;5029422;28;20560;-74
2022/06/18 08:16:34;;;;;;;7.53;6.83;;;22.90;99.90;;;;;;5034288;28;20452;-74
2022/06/18 08:19:24;;;;;;;7.00;6.40;;;22.90;99.90;;;;;;5034538;28;20547;-75
2022/06/18 08:22:12;;;;;;;7.40;6.80;;;23.00;99.90;;;;;;5029710;28;20573;-74
2022/06/18 08:25:01;;;;;;;9.30;7.47;;;23.00;99.90;;;;;;5027660;28;20566;-74
2022/06/18 08:27:51;;;;;;;8.13;7.43;;;23.10;99.90;;;;;;5032837;28;20514;-75
2022/06/18 08:30:41;;;;;;;7.30;6.70;;;23.10;99.90;;;;;;5032274;28;20573;-74
2022/06/18 08:33:30;;;;;;;9.10;8.30;;;23.20;99.90;;;;;;5029993;28;21179;-74
2022/06/18 08:36:19;;;;;;;8.57;7.67;;;23.30;99.90;;;;;;5031052;28;20549;-75
2022/06/18 08:39:09;;;;;;;9.00;7.90;;;23.30;99.90;;;;;;5025452;28;20466;-74
2022/06/18 08:42:06;;;;;;;8.87;7.93;;;23.40;99.90;;;;;;5031566;28;21058;-74
2022/06/18 08:45:09;;;;;;;8.60;7.70;;;23.40;99.90;;;;;;5030841;28;20958;-74
2022/06/18 08:48:15;;;;;;;8.07;7.37;;;23.40;99.90;;;;;;5028006;28;20455;-75
2022/06/18 08:51:17;;;;;;;8.43;7.70;;;23.50;99.90;;;;;;5019158;28;20517;-74
2022/06/18 08:54:17;;;;;;;8.33;7.70;;;23.60;99.90;;;;;;5024587;28;20577;-74
2022/06/18 08:57:14;;;;;;;10.70;8.53;;;23.60;99.90;;;;;;5023599;28;20463;-74
2022/06/18 09:00:09;;;;;;;10.27;9.37;;;23.80;99.90;;;;;;5034547;28;20520;-74
2022/06/18 09:03:02;;;;;;;9.43;8.63;;;23.80;99.90;;;;;;5030548;28;21019;-73
2022/06/18 09:06:21;;;;;;;11.20;8.90;;;23.80;99.90;;;;;;5030658;28;20479;-74
2022/06/18 09:09:17;;;;;;;9.67;8.90;;;23.80;99.90;;;;;;5032593;28;20598;-74
2022/06/18 09:12:10;;;;;;;9.03;8.37;;;23.90;99.90;;;;;;5033928;28;20458;-74
2022/06/18 09:15:03;;;;;;;8.87;8.07;;;23.90;99.90;;;;;;5031156;28;20999;-74
2022/06/18 09:17:58;;;;;;;8.43;7.80;;;24.00;99.90;;;;;;5032287;28;20570;-74
2022/06/18 09:20:50;;;;;;;8.93;8.00;;;24.00;99.90;;;;;;5032719;28;20581;-74
2022/06/18 09:23:44;;;;;;;9.77;8.30;;;24.00;99.90;;;;;;5029524;28;20486;-74
2022/06/18 09:26:37;;;;;;;9.33;8.43;;;24.00;99.90;;;;;;5030253;28;20470;-73
2022/06/18 09:29:35;;;;;;;9.23;8.43;;;24.10;99.90;;;;;;5031990;28;21027;-73
2022/06/18 09:32:36;;;;;;;9.90;9.00;;;24.10;99.90;;;;;;5032596;28;21011;-73
2022/06/18 09:35:29;;;;;;;9.77;8.87;;;24.10;99.90;;;;;;5031246;28;20628;-73
2022/06/18 09:38:22;;;;;;;10.93;9.10;;;24.20;99.90;;;;;;5029826;28;20470;-73
2022/06/18 09:41:18;;;;;;;9.50;8.70;;;24.10;99.90;;;;;;5029048;28;20574;-73
2022/06/18 09:44:14;;;;;;;9.70;8.80;;;24.10;99.90;;;;;;5029755;28;20613;-73
2022/06/18 09:47:09;;;;;;;8.43;7.77;;;24.10;99.90;;;;;;5028594;28;20827;-73
2022/06/18 09:49:57;;;;;;;9.30;8.40;;;24.10;99.90;;;;;;5029382;28;20605;-73
2022/06/18 09:52:51;;;;;;;9.63;7.67;;;24.10;99.90;;;;;;5032927;28;20566;-74
2022/06/18 09:55:43;;;;;;;8.67;7.90;;;24.10;99.90;;;;;;5032891;28;20583;-73
2022/06/18 09:58:36;;;;;;;8.80;8.07;;;24.20;99.90;;;;;;5032229;28;20458;-73
2022/06/18 10:01:38;;;;;;;9.40;8.57;;;24.10;99.90;;;;;;5026620;28;20474;-73
2022/06/18 10:07:40;;;;;;;8.87;8.07;;;24.10;99.90;;;;;;5029064;28;20515;-73
2022/06/18 10:10:29;;;;;;;7.50;6.83;;;24.10;99.90;;;;;;5028629;28;20451;-73
2022/06/18 10:13:28;;;;;;;6.73;6.20;;;24.20;99.90;;;;;;5033462;28;21120;-73
2022/06/18 10:16:25;;;;;;;6.50;6.00;;;24.20;99.90;;;;;;5030394;28;20505;-72
2022/06/18 10:19:28;;;;;;;9.00;5.93;;;24.20;99.90;;;;;;5030643;28;20847;-72
2022/06/18 10:22:26;;;;;;;6.00;5.57;;;24.20;99.90;;;;;;5028621;28;20573;-71
2022/06/18 10:25:26;;;;;;;5.60;5.10;;;24.20;99.90;;;;;;5022721;28;20565;-72
2022/06/18 10:28:23;;;;;;;5.87;5.23;;;24.20;99.90;;;;;;5033236;28;20521;-72
2022/06/18 10:31:16;;;;;;;5.70;5.10;;;24.20;99.90;;;;;;5033158;28;20447;-71
2022/06/18 10:34:16;;;;;;;6.00;5.50;;;24.20;99.90;;;;;;5025314;28;20479;-71
2022/06/18 10:37:15;;;;;;;5.83;5.33;;;24.20;99.90;;;;;;5028624;28;20527;-72
2022/06/18 10:40:33;;;;;;;7.87;5.30;;;24.20;99.90;;;;;;5018825;28;21132;-74
2022/06/18 10:43:36;;;;;;;5.97;5.40;;;24.20;99.90;;;;;;5018673;28;20476;-71
2022/06/18 10:46:25;;;;;;;7.50;5.37;;;24.30;99.90;;;;;;5012494;28;20519;-71
2022/06/18 10:49:24;;;;;;;6.67;5.73;;;24.40;99.90;;;;;;5010015;28;21857;-74
2022/06/18 10:52:25;;;;;;;7.60;5.63;;;24.40;99.90;;;;;;5013231;28;20451;-71
2022/06/18 10:55:17;;;;;;;5.87;5.37;;;24.40;99.90;;;;;;5017146;28;20569;-70
2022/06/18 10:58:13;;;;;;;6.50;5.83;;;24.50;99.90;;;;;;5012798;28;20466;-71
2022/06/18 11:01:05;;;;;;;5.53;5.10;;;24.50;99.90;;;;;;5006448;28;20973;-71
2022/06/18 11:03:58;;;;;;;5.33;4.60;;;24.60;99.90;;;;;;5021500;28;20587;-73
2022/06/18 11:06:48;;;;;;;5.07;4.60;;;24.60;99.90;;;;;;5016985;28;20570;-74
2022/06/18 11:09:54;;;;;;;4.37;3.97;;;24.70;99.90;;;;;;5020611;28;20539;-73
2022/06/18 11:12:53;;;;;;;4.33;3.27;;;24.70;99.90;;;;;;5021543;28;20994;-73
2022/06/18 11:15:41;;;;;;;3.20;2.70;;;24.80;99.90;;;;;;5018134;28;20562;-73
2022/06/18 11:18:30;;;;;;;2.90;2.70;;;24.90;99.90;;;;;;5018757;28;20548;-73
2022/06/18 11:21:34;;;;;;;3.50;2.20;;;24.90;99.90;;;;;;5020556;28;20585;-73
2022/06/18 11:24:35;;;;;;;2.43;2.30;;;24.90;99.90;;;;;;5021245;28;20494;-73
2022/06/18 11:27:32;;;;;;;3.17;2.57;;;24.90;99.90;;;;;;5027210;28;20485;-73
2022/06/18 11:30:26;;;;;;;5.63;2.60;;;24.90;99.90;;;;;;5022864;28;20482;-72
2022/06/18 11:33:26;;;;;;;2.53;2.30;;;24.90;99.90;;;;;;5018083;28;20483;-73
2022/06/18 11:36:19;;;;;;;3.00;2.00;;;24.90;99.90;;;;;;5029991;28;20945;-73
2022/06/18 11:39:27;;;;;;;3.90;2.60;;;24.90;99.90;;;;;;5015767;28;20580;-73
2022/06/18 11:42:22;;;;;;;3.50;1.90;;;25.00;99.90;;;;;;5031425;28;20676;-73
2022/06/18 11:45:32;;;;;;;2.67;2.07;;;25.00;99.90;;;;;;5013227;28;20753;-73
2022/06/18 11:48:26;;;;;;;1.70;1.60;;;25.10;99.90;;;;;;5024533;28;20529;-73
2022/06/18 11:51:24;;;;;;;2.67;1.97;;;25.10;99.90;;;;;;5026182;28;20661;-73
2022/06/18 11:54:19;;;;;;;2.83;1.97;;;25.10;99.90;;;;;;5021973;28;20635;-73
2022/06/18 11:57:28;;;;;;;3.10;1.80;;;25.10;99.90;;;;;;5023376;28;20448;-73
2022/06/18 12:00:20;;;;;;;2.27;1.50;;;25.20;99.90;;;;;;5029192;28;20487;-73
2022/06/18 12:03:21;;;;;;;2.47;1.40;;;25.20;99.90;;;;;;5021447;28;20491;-72
2022/06/18 12:06:14;;;;;;;1.63;1.17;;;25.20;99.90;;;;;;5012484;28;20470;-71
2022/06/18 12:09:23;;;;;;;1.20;1.07;;;25.40;99.90;;;;;;5026342;28;20455;-72
2022/06/18 12:12:41;;;;;;;1.43;1.20;;;25.40;99.90;;;;;;5028813;28;20543;-72
2022/06/18 12:15:38;;;;;;;1.67;1.23;;;25.50;99.90;;;;;;5021106;28;20478;-72
2022/06/18 12:18:35;;;;;;;1.80;1.37;;;25.50;99.90;;;;;;5022577;28;20469;-72
2022/06/18 12:21:38;;;;;;;1.53;1.27;;;25.60;99.90;;;;;;5030787;28;20537;-72
2022/06/18 12:24:43;;;;;;;1.50;1.30;;;25.70;99.90;;;;;;5029691;28;21220;-72
2022/06/18 12:27:38;;;;;;;1.97;1.30;;;25.80;99.90;;;;;;5029513;28;20968;-70
2022/06/18 12:30:31;;;;;;;1.30;1.20;;;25.90;99.90;;;;;;5027973;28;20570;-72
2022/06/18 12:33:30;;;;;;;2.60;1.13;;;25.80;99.90;;;;;;5029882;28;20471;-72
2022/06/18 12:36:27;;;;;;;1.00;1.00;;;25.90;99.90;;;;;;5031697;28;20462;-72
2022/06/18 12:39:24;;;;;;;1.20;1.10;;;25.90;99.90;;;;;;5029335;28;20553;-71
2022/06/18 12:42:20;;;;;;;2.60;1.20;;;25.90;99.90;;;;;;5031381;28;20486;-71
2022/06/18 12:45:22;;;;;;;4.10;1.27;;;26.00;99.90;;;;;;5030738;28;20479;-69
2022/06/18 12:48:26;;;;;;;2.10;1.30;;;26.00;99.90;;;;;;5021482;28;20456;-71
2022/06/18 12:51:26;;;;;;;2.47;1.10;;;26.10;99.90;;;;;;5027729;28;20462;-71
2022/06/18 12:54:30;;;;;;;1.40;1.30;;;26.10;99.90;;;;;;5026049;28;20778;-71
2022/06/18 12:57:27;;;;;;;1.17;1.10;;;26.20;99.90;;;;;;5028389;28;20451;-70
2022/06/18 13:00:27;;;;;;;1.13;1.03;;;26.20;99.90;;;;;;5032244;28;20512;-70
2022/06/18 13:03:36;;;;;;;1.73;1.20;;;26.30;99.90;;;;;;5031572;28;20494;-70
2022/06/18 13:06:36;;;;;;;1.60;1.50;;;26.30;99.90;;;;;;5025889;28;20873;-71
2022/06/18 13:09:34;;;;;;;2.10;1.17;;;26.40;99.90;;;;;;5024858;28;20448;-71
2022/06/18 13:12:46;;;;;;;1.30;1.20;;;26.50;99.90;;;;;;5026046;28;20451;-70
2022/06/18 13:15:41;;;;;;;1.80;1.23;;;26.60;99.90;;;;;;5025662;28;21207;-72
2022/06/18 13:18:36;;;;;;;1.40;1.30;;;26.60;99.90;;;;;;5029564;28;21208;-73
2022/06/18 13:21:25;;;;;;;1.50;1.40;;;26.70;99.90;;;;;;5025636;28;20952;-73
2022/06/18 13:30:43;;;;;;;2.30;1.30;;;26.60;99.90;;;;;;5027002;28;20963;-73
2022/06/18 13:33:43;;;;;;;1.50;1.40;;;26.80;99.90;;;;;;5029839;28;20478;-73
2022/06/18 13:36:46;;;;;;;1.43;1.33;;;26.90;99.90;;;;;;5030020;28;20465;-74
2022/06/18 13:39:46;;;;;;;1.77;1.40;;;26.90;99.90;;;;;;5024977;28;20455;-74
2022/06/18 13:42:46;;;;;;;1.30;1.20;;;26.90;99.90;;;;;;5021317;28;21022;-74
2022/06/18 13:45:42;;;;;;;1.80;1.53;;;27.00;99.90;;;;;;5020184;28;20905;-75
2022/06/18 13:48:46;;;;;;;1.87;1.37;;;27.10;99.90;;;;;;5023420;28;20531;-74
2022/06/18 13:51:37;;;;;;;1.50;1.40;;;27.20;99.90;;;;;;5027584;28;21145;-75
2022/06/18 13:54:25;;;;;;;1.30;1.20;;;27.20;99.90;;;;;;5023069;28;20699;-75
2022/06/18 13:57:17;;;;;;;1.50;1.40;;;27.20;99.90;;;;;;5025994;28;20957;-74
2022/06/18 14:00:18;;;;;;;1.33;1.17;;;27.30;99.90;;;;;;5019347;28;21064;-74
2022/06/18 14:03:09;;;;;;;1.63;1.27;;;27.40;99.90;;;;;;5026910;28;20541;-74
2022/06/18 14:06:04;;;;;;;2.57;1.70;;;27.30;99.90;;;;;;5019178;28;20503;-74
2022/06/18 14:08:56;;;;;;;2.30;2.10;;;27.40;99.90;;;;;;5024027;28;20557;-74
2022/06/18 14:11:52;;;;;;;1.77;1.63;;;27.40;99.90;;;;;;5025946;28;20601;-74
2022/06/18 14:14:44;;;;;;;1.90;1.70;;;27.40;99.90;;;;;;5031231;28;20617;-74
2022/06/18 14:17:40;;;;;;;3.47;1.60;;;27.40;99.90;;;;;;5024866;28;20462;-74
2022/06/18 14:20:30;;;;;;;1.30;1.20;;;27.30;99.90;;;;;;5024690;28;20451;-73
2022/06/18 14:23:26;;;;;;;3.43;1.83;;;27.20;99.90;;;;;;5024798;28;20568;-74
2022/06/18 14:26:18;;;;;;;2.37;1.57;;;27.00;99.90;;;;;;5015691;28;20475;-74
2022/06/18 14:29:07;;;;;;;2.90;1.27;;;26.80;99.90;;;;;;5021187;28;20508;-75
2022/06/18 14:32:09;;;;;;;2.53;2.33;;;26.60;99.90;;;;;;5019261;28;20459;-74
2022/06/18 14:35:07;;;;;;;1.60;1.50;;;26.50;99.90;;;;;;5005056;28;20477;-74
2022/06/18 14:37:56;;;;;;;1.53;1.40;;;26.40;99.90;;;;;;5019646;28;20502;-73
2022/06/18 14:44:09;;;;;;;1.53;1.43;;;26.40;99.90;;;;;;5024689;28;20479;-74
2022/06/18 14:47:41;;;;;;;3.67;1.50;;;26.30;99.90;;;;;;5020775;28;20459;-73
2022/06/18 14:50:59;;;;;;;2.67;1.40;;;26.30;99.90;;;;;;5024378;28;20458;-73
2022/06/18 14:54:35;;;;;;;3.10;1.57;;;26.30;99.90;;;;;;5002164;28;20589;-73
2022/06/18 14:58:02;;;;;;;2.07;1.97;;;26.30;99.90;;;;;;5000470;28;20465;-73
2022/06/18 15:01:07;;;;;;;2.00;1.60;;;26.30;99.90;;;;;;5018735;28;20462;-73
2022/06/18 15:04:09;;;;;;;1.37;1.20;;;26.30;99.90;;;;;;5021756;28;20986;-73
2022/06/18 15:07:04;;;;;;;3.47;1.50;;;26.30;99.90;;;;;;5014507;28;21684;-73
2022/06/18 15:09:54;;;;;;;2.60;2.13;;;26.40;99.90;;;;;;5029215;28;20511;-73
2022/06/18 15:12:42;;;;;;;1.90;1.80;;;26.40;99.90;;;;;;5032377;28;20455;-73
2022/06/18 15:15:44;;;;;;;1.60;1.50;;;26.40;99.90;;;;;;5024502;28;20483;-74
2022/06/18 15:18:36;;;;;;;1.87;1.53;;;26.50;99.90;;;;;;5032126;28;20924;-74
2022/06/18 15:21:33;;;;;;;2.33;1.33;;;26.60;99.90;;;;;;5037392;28;20958;-74
2022/06/18 15:24:30;;;;;;;2.20;1.30;;;26.40;99.90;;;;;;5034226;28;20478;-74
2022/06/18 15:27:28;;;;;;;1.43;1.27;;;26.30;99.90;;;;;;5024511;28;20447;-74
2022/06/18 15:30:43;;;;;;;0.97;0.97;;;26.40;99.90;;;;;;5017003;28;20458;-74
2022/06/18 15:33:31;;;;;;;1.70;1.30;;;26.40;99.90;;;;;;5017179;28;20471;-74
2022/06/18 15:36:25;;;;;;;1.33;1.23;;;26.30;99.90;;;;;;5019221;28;20482;-74
2022/06/18 15:39:20;;;;;;;2.70;1.47;;;26.30;99.90;;;;;;5021417;28;20470;-74
2022/06/18 15:42:16;;;;;;;2.40;1.33;;;26.30;99.90;;;;;;5024107;28;22166;-74
2022/06/18 15:45:07;;;;;;;2.07;1.27;;;26.40;99.90;;;;;;5016322;28;20497;-73
2022/06/18 15:47:58;;;;;;;1.23;1.13;;;26.40;99.90;;;;;;5028262;28;20442;-73
2022/06/18 15:50:47;;;;;;;1.40;1.30;;;26.40;99.90;;;;;;5026292;28;20452;-73
2022/06/18 15:53:46;;;;;;;1.47;1.20;;;26.30;99.90;;;;;;5024890;28;20562;-74